sensor_id;sensor_type;location;lat;lon;timestamp;P1;durP1;ratioP1;P2;durP2;ratioP2
23290;SDS011;11814;44.686;10.842;2023-01-10T00:00:23;29.25;;;20.90;;
23290;SDS011;11814;44.686;10.842;2023-01-10T00:02:53;28.50;;;19.52;;
23290;SDS011;11814;44.686;10.842;2023-01-10T00:05:18;32.63;;;20.08;;
23290;SDS011;11814;44.686;10.842;2023-01-10T00:07:44;27.52;;;20.13;;
23290;SDS011;11814;44.686;10.842;2023-01-10T00:10:10;30.70;;;20.35;;
23290;SDS011;11814;44.686;10.842;2023-01-10T00:12:36;26.70;;;19.08;;
23290;SDS011;11814;44.686;10.842;2023-01-10T00:15:21;27.45;;;20.23;;
23290;SDS011;11814;44.686;10.842;2023-01-10T00:17:47;24.75;;;18.38;;
23290;SDS011;11814;44.686;10.842;2023-01-10T00:20:14;24.92;;;17.48;;
23290;SDS011;11814;44.686;10.842;2023-01-10T00:22:40;24.02;;;16.85;;
23290;SDS011;11814;44.686;10.842;2023-01-10T00:25:06;22.45;;;16.90;;
23290;SDS011;11814;44.686;10.842;2023-01-10T00:27:32;22.30;;;15.57;;
23290;SDS011;11814;44.686;10.842;2023-01-10T00:29:59;21.02;;;14.75;;
23290;SDS011;11814;44.686;10.842;2023-01-10T00:32:31;21.02;;;13.63;;
23290;SDS011;11814;44.686;10.842;2023-01-10T00:34:56;18.90;;;13.50;;
23290;SDS011;11814;44.686;10.842;2023-01-10T00:37:22;19.13;;;13.35;;
23290;SDS011;11814;44.686;10.842;2023-01-10T00:39:48;20.58;;;14.18;;
23290;SDS011;11814;44.686;10.842;2023-01-10T00:42:13;19.35;;;13.00;;
23290;SDS011;11814;44.686;10.842;2023-01-10T00:44:57;21.27;;;12.80;;
23290;SDS011;11814;44.686;10.842;2023-01-10T00:47:23;21.95;;;13.18;;
23290;SDS011;11814;44.686;10.842;2023-01-10T00:49:49;20.85;;;13.40;;
23290;SDS011;11814;44.686;10.842;2023-01-10T00:52:14;20.55;;;13.27;;
23290;SDS011;11814;44.686;10.842;2023-01-10T00:54:40;22.75;;;12.88;;
23290;SDS011;11814;44.686;10.842;2023-01-10T00:57:06;19.13;;;12.10;;
23290;SDS011;11814;44.686;10.842;2023-01-10T00:59:32;18.90;;;12.38;;
23290;SDS011;11814;44.686;10.842;2023-01-10T01:01:57;19.58;;;12.73;;
23290;SDS011;11814;44.686;10.842;2023-01-10T01:04:23;20.33;;;13.20;;
23290;SDS011;11814;44.686;10.842;2023-01-10T01:06:49;17.50;;;12.70;;
23290;SDS011;11814;44.686;10.842;2023-01-10T01:09:15;20.92;;;13.02;;
23290;SDS011;11814;44.686;10.842;2023-01-10T01:11:41;20.73;;;12.90;;
23290;SDS011;11814;44.686;10.842;2023-01-10T01:14:07;20.80;;;12.52;;
23290;SDS011;11814;44.686;10.842;2023-01-10T01:16:32;16.75;;;11.50;;
23290;SDS011;11814;44.686;10.842;2023-01-10T01:18:58;20.33;;;13.00;;
23290;SDS011;11814;44.686;10.842;2023-01-10T01:21:24;18.90;;;12.15;;
23290;SDS011;11814;44.686;10.842;2023-01-10T01:23:55;18.27;;;12.10;;
23290;SDS011;11814;44.686;10.842;2023-01-10T01:26:22;19.00;;;11.73;;
23290;SDS011;11814;44.686;10.842;2023-01-10T01:28:48;17.13;;;10.95;;
23290;SDS011;11814;44.686;10.842;2023-01-10T01:31:14;18.00;;;11.60;;
23290;SDS011;11814;44.686;10.842;2023-01-10T01:33:40;17.55;;;11.82;;
23290;SDS011;11814;44.686;10.842;2023-01-10T01:36:07;17.20;;;11.18;;
23290;SDS011;11814;44.686;10.842;2023-01-10T01:38:34;16.33;;;11.35;;
23290;SDS011;11814;44.686;10.842;2023-01-10T01:41:01;14.57;;;10.02;;
23290;SDS011;11814;44.686;10.842;2023-01-10T01:43:28;16.25;;;10.75;;
23290;SDS011;11814;44.686;10.842;2023-01-10T01:45:59;16.17;;;10.88;;
23290;SDS011;11814;44.686;10.842;2023-01-10T01:51:16;18.15;;;10.27;;
23290;SDS011;11814;44.686;10.842;2023-01-10T01:54:07;19.20;;;10.00;;
23290;SDS011;11814;44.686;10.842;2023-01-10T01:59:17;12.50;;;7.10;;
23290;SDS011;11814;44.686;10.842;2023-01-10T02:01:51;9.95;;;5.57;;
23290;SDS011;11814;44.686;10.842;2023-01-10T02:04:28;7.95;;;5.45;;
23290;SDS011;11814;44.686;10.842;2023-01-10T02:06:57;7.57;;;4.68;;
23290;SDS011;11814;44.686;10.842;2023-01-10T02:11:56;9.35;;;3.60;;
23290;SDS011;11814;44.686;10.842;2023-01-10T02:14:22;6.65;;;3.58;;
23290;SDS011;11814;44.686;10.842;2023-01-10T02:16:50;5.13;;;3.17;;
23290;SDS011;11814;44.686;10.842;2023-01-10T02:22:07;5.78;;;3.72;;
23290;SDS011;11814;44.686;10.842;2023-01-10T02:24:42;7.68;;;3.75;;
23290;SDS011;11814;44.686;10.842;2023-01-10T02:27:34;5.40;;;3.95;;
23290;SDS011;11814;44.686;10.842;2023-01-10T02:32:43;6.43;;;3.80;;
23290;SDS011;11814;44.686;10.842;2023-01-10T02:43:19;4.20;;;3.03;;
23290;SDS011;11814;44.686;10.842;2023-01-10T02:45:59;6.68;;;3.55;;
23290;SDS011;11814;44.686;10.842;2023-01-10T02:48:29;5.75;;;3.50;;
23290;SDS011;11814;44.686;10.842;2023-01-10T02:50:57;5.35;;;3.63;;
23290;SDS011;11814;44.686;10.842;2023-01-10T02:53:44;5.78;;;3.72;;
23290;SDS011;11814;44.686;10.842;2023-01-10T02:56:28;5.00;;;3.40;;
23290;SDS011;11814;44.686;10.842;2023-01-10T03:11:04;5.05;;;3.35;;
23290;SDS011;11814;44.686;10.842;2023-01-10T03:15:57;4.38;;;3.30;;
23290;SDS011;11814;44.686;10.842;2023-01-10T03:18:33;5.22;;;3.25;;
23290;SDS011;11814;44.686;10.842;2023-01-10T03:21:06;5.40;;;3.38;;
23290;SDS011;11814;44.686;10.842;2023-01-10T03:23:34;5.50;;;3.60;;
23290;SDS011;11814;44.686;10.842;2023-01-10T03:26:01;5.40;;;3.60;;
23290;SDS011;11814;44.686;10.842;2023-01-10T03:28:30;5.68;;;3.65;;
23290;SDS011;11814;44.686;10.842;2023-01-10T03:31:42;6.47;;;3.58;;
23290;SDS011;11814;44.686;10.842;2023-01-10T03:33:50;7.43;;;3.75;;
23290;SDS011;11814;44.686;10.842;2023-01-10T03:42:06;5.88;;;3.90;;
23290;SDS011;11814;44.686;10.842;2023-01-10T03:44:42;7.50;;;3.80;;
23290;SDS011;11814;44.686;10.842;2023-01-10T03:50:11;6.22;;;3.70;;
23290;SDS011;11814;44.686;10.842;2023-01-10T03:52:48;6.55;;;3.63;;
23290;SDS011;11814;44.686;10.842;2023-01-10T03:55:14;6.22;;;4.00;;
23290;SDS011;11814;44.686;10.842;2023-01-10T03:57:44;5.78;;;3.67;;
23290;SDS011;11814;44.686;10.842;2023-01-10T04:00:11;8.10;;;3.83;;
23290;SDS011;11814;44.686;10.842;2023-01-10T04:02:38;8.43;;;3.40;;
23290;SDS011;11814;44.686;10.842;2023-01-10T04:05:04;6.07;;;4.07;;
23290;SDS011;11814;44.686;10.842;2023-01-10T04:07:30;7.72;;;3.75;;
23290;SDS011;11814;44.686;10.842;2023-01-10T04:09:56;6.57;;;3.70;;
23290;SDS011;11814;44.686;10.842;2023-01-10T04:12:22;8.50;;;4.40;;
23290;SDS011;11814;44.686;10.842;2023-01-10T04:14:48;5.93;;;3.60;;
23290;SDS011;11814;44.686;10.842;2023-01-10T04:17:14;7.35;;;3.72;;
23290;SDS011;11814;44.686;10.842;2023-01-10T04:19:41;10.25;;;4.15;;
23290;SDS011;11814;44.686;10.842;2023-01-10T04:22:08;5.50;;;3.63;;
23290;SDS011;11814;44.686;10.842;2023-01-10T04:24:34;5.80;;;4.03;;
23290;SDS011;11814;44.686;10.842;2023-01-10T04:27:00;6.75;;;4.28;;
23290;SDS011;11814;44.686;10.842;2023-01-10T04:29:26;7.88;;;4.20;;
23290;SDS011;11814;44.686;10.842;2023-01-10T04:31:52;7.30;;;3.85;;
23290;SDS011;11814;44.686;10.842;2023-01-10T04:34:18;8.02;;;4.18;;
23290;SDS011;11814;44.686;10.842;2023-01-10T04:36:47;9.48;;;4.20;;
23290;SDS011;11814;44.686;10.842;2023-01-10T04:39:15;8.88;;;4.40;;
23290;SDS011;11814;44.686;10.842;2023-01-10T04:41:40;7.03;;;3.83;;
23290;SDS011;11814;44.686;10.842;2023-01-10T04:44:06;7.25;;;4.28;;
23290;SDS011;11814;44.686;10.842;2023-01-10T04:46:33;8.27;;;4.40;;
23290;SDS011;11814;44.686;10.842;2023-01-10T04:48:58;6.85;;;4.28;;
23290;SDS011;11814;44.686;10.842;2023-01-10T04:51:25;9.05;;;4.28;;
23290;SDS011;11814;44.686;10.842;2023-01-10T04:53:51;6.53;;;4.32;;
23290;SDS011;11814;44.686;10.842;2023-01-10T04:56:18;8.05;;;4.57;;
23290;SDS011;11814;44.686;10.842;2023-01-10T04:58:46;9.55;;;5.20;;
23290;SDS011;11814;44.686;10.842;2023-01-10T05:01:14;7.00;;;4.18;;
23290;SDS011;11814;44.686;10.842;2023-01-10T05:03:41;7.07;;;4.15;;
23290;SDS011;11814;44.686;10.842;2023-01-10T05:06:07;7.97;;;4.53;;
23290;SDS011;11814;44.686;10.842;2023-01-10T05:08:33;6.68;;;4.25;;
23290;SDS011;11814;44.686;10.842;2023-01-10T05:10:59;8.23;;;4.57;;
23290;SDS011;11814;44.686;10.842;2023-01-10T05:13:25;11.40;;;4.50;;
23290;SDS011;11814;44.686;10.842;2023-01-10T05:15:54;7.53;;;4.40;;
23290;SDS011;11814;44.686;10.842;2023-01-10T05:18:22;6.15;;;4.28;;
23290;SDS011;11814;44.686;10.842;2023-01-10T05:20:48;13.45;;;5.18;;
23290;SDS011;11814;44.686;10.842;2023-01-10T05:23:14;7.35;;;4.47;;
23290;SDS011;11814;44.686;10.842;2023-01-10T05:25:39;7.05;;;4.38;;
23290;SDS011;11814;44.686;10.842;2023-01-10T05:28:05;7.68;;;4.22;;
23290;SDS011;11814;44.686;10.842;2023-01-10T05:30:31;5.97;;;4.35;;
23290;SDS011;11814;44.686;10.842;2023-01-10T05:32:57;7.00;;;4.13;;
23290;SDS011;11814;44.686;10.842;2023-01-10T05:35:22;7.68;;;4.82;;
23290;SDS011;11814;44.686;10.842;2023-01-10T05:37:48;9.70;;;5.53;;
23290;SDS011;11814;44.686;10.842;2023-01-10T05:40:14;7.57;;;4.93;;
23290;SDS011;11814;44.686;10.842;2023-01-10T05:42:40;7.60;;;4.82;;
23290;SDS011;11814;44.686;10.842;2023-01-10T05:45:06;6.55;;;4.00;;
23290;SDS011;11814;44.686;10.842;2023-01-10T05:47:32;8.98;;;4.50;;
23290;SDS011;11814;44.686;10.842;2023-01-10T05:49:58;6.05;;;4.03;;
23290;SDS011;11814;44.686;10.842;2023-01-10T05:52:24;6.88;;;3.88;;
23290;SDS011;11814;44.686;10.842;2023-01-10T05:54:50;5.47;;;3.58;;
23290;SDS011;11814;44.686;10.842;2023-01-10T05:57:15;5.57;;;3.83;;
23290;SDS011;11814;44.686;10.842;2023-01-10T05:59:43;6.50;;;3.65;;
23290;SDS011;11814;44.686;10.842;2023-01-10T06:02:09;6.38;;;4.07;;
23290;SDS011;11814;44.686;10.842;2023-01-10T06:04:34;5.80;;;3.55;;
23290;SDS011;11814;44.686;10.842;2023-01-10T06:07:00;5.82;;;3.38;;
23290;SDS011;11814;44.686;10.842;2023-01-10T06:09:26;4.25;;;3.03;;
23290;SDS011;11814;44.686;10.842;2023-01-10T06:11:52;5.72;;;3.28;;
23290;SDS011;11814;44.686;10.842;2023-01-10T06:14:17;5.05;;;2.85;;
23290;SDS011;11814;44.686;10.842;2023-01-10T06:16:44;8.25;;;3.42;;
23290;SDS011;11814;44.686;10.842;2023-01-10T06:19:10;5.25;;;3.00;;
23290;SDS011;11814;44.686;10.842;2023-01-10T06:21:36;6.45;;;3.40;;
23290;SDS011;11814;44.686;10.842;2023-01-10T06:24:02;6.80;;;3.15;;
23290;SDS011;11814;44.686;10.842;2023-01-10T06:26:28;4.93;;;3.30;;
23290;SDS011;11814;44.686;10.842;2023-01-10T06:28:53;5.45;;;3.38;;
23290;SDS011;11814;44.686;10.842;2023-01-10T06:31:19;4.53;;;3.10;;
23290;SDS011;11814;44.686;10.842;2023-01-10T06:33:45;7.28;;;3.65;;
23290;SDS011;11814;44.686;10.842;2023-01-10T06:36:13;6.95;;;3.80;;
23290;SDS011;11814;44.686;10.842;2023-01-10T06:38:39;5.70;;;3.40;;
23290;SDS011;11814;44.686;10.842;2023-01-10T06:41:05;8.18;;;3.40;;
23290;SDS011;11814;44.686;10.842;2023-01-10T06:43:46;5.53;;;3.30;;
23290;SDS011;11814;44.686;10.842;2023-01-10T06:46:14;6.40;;;3.33;;
23290;SDS011;11814;44.686;10.842;2023-01-10T06:48:41;5.55;;;2.60;;
23290;SDS011;11814;44.686;10.842;2023-01-10T06:51:09;7.38;;;2.60;;
23290;SDS011;11814;44.686;10.842;2023-01-10T06:53:36;6.97;;;2.70;;
23290;SDS011;11814;44.686;10.842;2023-01-10T06:56:01;7.70;;;2.70;;
23290;SDS011;11814;44.686;10.842;2023-01-10T06:58:30;6.32;;;2.80;;
23290;SDS011;11814;44.686;10.842;2023-01-10T07:00:56;6.78;;;2.72;;
23290;SDS011;11814;44.686;10.842;2023-01-10T07:03:22;5.75;;;2.38;;
23290;SDS011;11814;44.686;10.842;2023-01-10T07:05:48;11.65;;;3.72;;
23290;SDS011;11814;44.686;10.842;2023-01-10T07:08:14;4.70;;;2.80;;
23290;SDS011;11814;44.686;10.842;2023-01-10T07:10:40;4.47;;;2.08;;
23290;SDS011;11814;44.686;10.842;2023-01-10T07:13:07;4.82;;;2.40;;
23290;SDS011;11814;44.686;10.842;2023-01-10T07:15:34;4.32;;;2.45;;
23290;SDS011;11814;44.686;10.842;2023-01-10T07:18:00;2.72;;;1.90;;
23290;SDS011;11814;44.686;10.842;2023-01-10T07:20:26;9.70;;;2.35;;
23290;SDS011;11814;44.686;10.842;2023-01-10T07:22:53;4.28;;;2.50;;
23290;SDS011;11814;44.686;10.842;2023-01-10T07:25:20;4.10;;;2.15;;
23290;SDS011;11814;44.686;10.842;2023-01-10T07:27:45;3.45;;;2.38;;
23290;SDS011;11814;44.686;10.842;2023-01-10T07:30:11;5.63;;;2.30;;
23290;SDS011;11814;44.686;10.842;2023-01-10T07:32:37;5.78;;;1.77;;
23290;SDS011;11814;44.686;10.842;2023-01-10T07:35:03;6.57;;;2.35;;
23290;SDS011;11814;44.686;10.842;2023-01-10T07:37:29;3.58;;;2.13;;
23290;SDS011;11814;44.686;10.842;2023-01-10T07:39:54;4.40;;;2.30;;
23290;SDS011;11814;44.686;10.842;2023-01-10T07:42:20;2.83;;;1.73;;
23290;SDS011;11814;44.686;10.842;2023-01-10T07:44:46;2.75;;;1.90;;
23290;SDS011;11814;44.686;10.842;2023-01-10T07:47:12;2.47;;;1.73;;
23290;SDS011;11814;44.686;10.842;2023-01-10T07:49:37;3.72;;;1.95;;
23290;SDS011;11814;44.686;10.842;2023-01-10T07:52:03;3.35;;;1.42;;
23290;SDS011;11814;44.686;10.842;2023-01-10T07:54:31;3.47;;;1.90;;
23290;SDS011;11814;44.686;10.842;2023-01-10T07:56:57;4.65;;;1.70;;
23290;SDS011;11814;44.686;10.842;2023-01-10T07:59:23;6.28;;;1.73;;
23290;SDS011;11814;44.686;10.842;2023-01-10T08:01:48;2.97;;;1.70;;
23290;SDS011;11814;44.686;10.842;2023-01-10T08:04:14;4.75;;;1.80;;
23290;SDS011;11814;44.686;10.842;2023-01-10T08:06:40;3.55;;;1.75;;
23290;SDS011;11814;44.686;10.842;2023-01-10T08:09:05;3.80;;;2.03;;
23290;SDS011;11814;44.686;10.842;2023-01-10T08:11:31;6.43;;;1.70;;
23290;SDS011;11814;44.686;10.842;2023-01-10T08:13:57;3.67;;;1.58;;
23290;SDS011;11814;44.686;10.842;2023-01-10T08:16:23;2.70;;;1.23;;
23290;SDS011;11814;44.686;10.842;2023-01-10T08:18:49;2.15;;;1.20;;
23290;SDS011;11814;44.686;10.842;2023-01-10T08:21:14;3.30;;;1.20;;
23290;SDS011;11814;44.686;10.842;2023-01-10T08:23:40;3.92;;;1.33;;
23290;SDS011;11814;44.686;10.842;2023-01-10T08:26:06;5.20;;;1.40;;
23290;SDS011;11814;44.686;10.842;2023-01-10T08:28:31;3.83;;;1.30;;
23290;SDS011;11814;44.686;10.842;2023-01-10T08:30:57;2.50;;;1.38;;
23290;SDS011;11814;44.686;10.842;2023-01-10T08:33:28;3.40;;;1.15;;
23290;SDS011;11814;44.686;10.842;2023-01-10T08:35:54;2.63;;;1.63;;
23290;SDS011;11814;44.686;10.842;2023-01-10T08:38:19;2.65;;;1.38;;
23290;SDS011;11814;44.686;10.842;2023-01-10T08:40:45;2.63;;;0.90;;
23290;SDS011;11814;44.686;10.842;2023-01-10T08:43:11;7.25;;;0.90;;
23290;SDS011;11814;44.686;10.842;2023-01-10T08:45:37;7.43;;;1.40;;
23290;SDS011;11814;44.686;10.842;2023-01-10T08:48:04;2.10;;;1.15;;
23290;SDS011;11814;44.686;10.842;2023-01-10T08:50:31;1.55;;;0.90;;
23290;SDS011;11814;44.686;10.842;2023-01-10T08:52:57;4.18;;;1.25;;
23290;SDS011;11814;44.686;10.842;2023-01-10T08:55:23;2.65;;;1.10;;
23290;SDS011;11814;44.686;10.842;2023-01-10T08:57:50;3.15;;;1.10;;
23290;SDS011;11814;44.686;10.842;2023-01-10T09:00:15;3.00;;;1.20;;
23290;SDS011;11814;44.686;10.842;2023-01-10T09:02:41;2.22;;;1.00;;
23290;SDS011;11814;44.686;10.842;2023-01-10T09:05:07;2.28;;;1.30;;
23290;SDS011;11814;44.686;10.842;2023-01-10T09:07:33;1.95;;;0.95;;
23290;SDS011;11814;44.686;10.842;2023-01-10T09:09:59;3.22;;;1.02;;
23290;SDS011;11814;44.686;10.842;2023-01-10T09:12:25;5.18;;;1.30;;
23290;SDS011;11814;44.686;10.842;2023-01-10T09:15:10;3.22;;;1.83;;
23290;SDS011;11814;44.686;10.842;2023-01-10T09:17:36;3.35;;;1.27;;
23290;SDS011;11814;44.686;10.842;2023-01-10T09:20:01;3.35;;;0.77;;
23290;SDS011;11814;44.686;10.842;2023-01-10T09:22:30;4.15;;;1.08;;
23290;SDS011;11814;44.686;10.842;2023-01-10T09:24:56;1.55;;;1.05;;
23290;SDS011;11814;44.686;10.842;2023-01-10T09:27:22;19.85;;;2.75;;
23290;SDS011;11814;44.686;10.842;2023-01-10T09:29:48;2.85;;;1.27;;
23290;SDS011;11814;44.686;10.842;2023-01-10T09:32:13;3.05;;;1.20;;
23290;SDS011;11814;44.686;10.842;2023-01-10T09:34:40;5.15;;;1.33;;
23290;SDS011;11814;44.686;10.842;2023-01-10T09:37:06;2.40;;;1.10;;
23290;SDS011;11814;44.686;10.842;2023-01-10T09:39:32;3.90;;;1.38;;
23290;SDS011;11814;44.686;10.842;2023-01-10T09:44:48;3.10;;;1.00;;
23290;SDS011;11814;44.686;10.842;2023-01-10T09:50:01;2.53;;;1.02;;
23290;SDS011;11814;44.686;10.842;2023-01-10T09:52:43;2.53;;;0.90;;
23290;SDS011;11814;44.686;10.842;2023-01-10T09:55:22;9.05;;;1.40;;
23290;SDS011;11814;44.686;10.842;2023-01-10T09:57:54;2.00;;;0.95;;
23290;SDS011;11814;44.686;10.842;2023-01-10T10:00:42;4.32;;;1.10;;
23290;SDS011;11814;44.686;10.842;2023-01-10T10:03:23;2.53;;;1.13;;
23290;SDS011;11814;44.686;10.842;2023-01-10T10:05:56;2.53;;;1.17;;
23290;SDS011;11814;44.686;10.842;2023-01-10T10:08:22;5.15;;;1.30;;
23290;SDS011;11814;44.686;10.842;2023-01-10T10:13:39;4.25;;;1.98;;
23290;SDS011;11814;44.686;10.842;2023-01-10T10:22:07;4.88;;;1.55;;
23290;SDS011;11814;44.686;10.842;2023-01-10T10:27:21;2.65;;;1.17;;
23290;SDS011;11814;44.686;10.842;2023-01-10T10:30:02;4.40;;;1.20;;
23290;SDS011;11814;44.686;10.842;2023-01-10T10:37:57;5.57;;;0.70;;
23290;SDS011;11814;44.686;10.842;2023-01-10T10:40:29;1.67;;;0.75;;
23290;SDS011;11814;44.686;10.842;2023-01-10T10:42:58;2.97;;;0.70;;
23290;SDS011;11814;44.686;10.842;2023-01-10T10:45:43;4.30;;;0.70;;
23290;SDS011;11814;44.686;10.842;2023-01-10T10:48:20;1.63;;;0.60;;
23290;SDS011;11814;44.686;10.842;2023-01-10T10:53:49;1.02;;;0.52;;
23290;SDS011;11814;44.686;10.842;2023-01-10T10:56:17;1.55;;;0.75;;
23290;SDS011;11814;44.686;10.842;2023-01-10T10:58:47;1.83;;;0.70;;
23290;SDS011;11814;44.686;10.842;2023-01-10T11:01:15;4.00;;;0.85;;
23290;SDS011;11814;44.686;10.842;2023-01-10T11:03:53;2.70;;;0.88;;
23290;SDS011;11814;44.686;10.842;2023-01-10T11:06:24;1.67;;;0.70;;
23290;SDS011;11814;44.686;10.842;2023-01-10T11:08:53;1.02;;;0.60;;
23290;SDS011;11814;44.686;10.842;2023-01-10T11:13:56;1.33;;;0.60;;
23290;SDS011;11814;44.686;10.842;2023-01-10T11:16:24;1.50;;;0.60;;
23290;SDS011;11814;44.686;10.842;2023-01-10T11:19:14;0.90;;;0.30;;
23290;SDS011;11814;44.686;10.842;2023-01-10T11:22:01;0.38;;;0.30;;
23290;SDS011;11814;44.686;10.842;2023-01-10T11:27:01;3.28;;;0.30;;
23290;SDS011;11814;44.686;10.842;2023-01-10T11:29:45;1.45;;;0.40;;
23290;SDS011;11814;44.686;10.842;2023-01-10T11:32:16;0.50;;;0.30;;
23290;SDS011;11814;44.686;10.842;2023-01-10T11:35:03;2.00;;;0.28;;
23290;SDS011;11814;44.686;10.842;2023-01-10T11:37:42;0.40;;;0.20;;
23290;SDS011;11814;44.686;10.842;2023-01-10T11:40:23;0.52;;;0.22;;
23290;SDS011;11814;44.686;10.842;2023-01-10T11:42:53;1.15;;;0.30;;
23290;SDS011;11814;44.686;10.842;2023-01-10T11:47:52;1.73;;;0.25;;
23290;SDS011;11814;44.686;10.842;2023-01-10T11:50:26;1.80;;;0.20;;
23290;SDS011;11814;44.686;10.842;2023-01-10T11:52:54;0.68;;;0.20;;
23290;SDS011;11814;44.686;10.842;2023-01-10T11:55:24;0.93;;;0.30;;
23290;SDS011;11814;44.686;10.842;2023-01-10T11:58:11;3.20;;;0.43;;
23290;SDS011;11814;44.686;10.842;2023-01-10T12:00:45;1.23;;;0.20;;
23290;SDS011;11814;44.686;10.842;2023-01-10T12:03:23;0.73;;;0.20;;
23290;SDS011;11814;44.686;10.842;2023-01-10T12:05:54;0.50;;;0.20;;
23290;SDS011;11814;44.686;10.842;2023-01-10T12:08:28;2.95;;;0.25;;
23290;SDS011;11814;44.686;10.842;2023-01-10T12:11:03;1.73;;;0.30;;
23290;SDS011;11814;44.686;10.842;2023-01-10T12:13:50;1.15;;;0.10;;
23290;SDS011;11814;44.686;10.842;2023-01-10T12:18:43;2.45;;;0.38;;
23290;SDS011;11814;44.686;10.842;2023-01-10T12:21:10;1.35;;;0.30;;
23290;SDS011;11814;44.686;10.842;2023-01-10T12:23:38;4.78;;;0.20;;
23290;SDS011;11814;44.686;10.842;2023-01-10T12:26:08;3.13;;;0.20;;
23290;SDS011;11814;44.686;10.842;2023-01-10T12:28:40;0.90;;;0.20;;
23290;SDS011;11814;44.686;10.842;2023-01-10T12:31:16;0.28;;;0.10;;
23290;SDS011;11814;44.686;10.842;2023-01-10T12:33:45;0.50;;;0.20;;
23290;SDS011;11814;44.686;10.842;2023-01-10T12:36:19;0.70;;;0.30;;
23290;SDS011;11814;44.686;10.842;2023-01-10T12:38:56;1.08;;;0.20;;
23290;SDS011;11814;44.686;10.842;2023-01-10T12:50:16;1.02;;;0.30;;
23290;SDS011;11814;44.686;10.842;2023-01-10T12:52:54;2.55;;;0.40;;
23290;SDS011;11814;44.686;10.842;2023-01-10T12:55:38;0.55;;;0.20;;
23290;SDS011;11814;44.686;10.842;2023-01-10T12:58:10;0.70;;;0.38;;
23290;SDS011;11814;44.686;10.842;2023-01-10T13:00:57;2.85;;;0.40;;
23290;SDS011;11814;44.686;10.842;2023-01-10T13:03:26;0.82;;;0.40;;
23290;SDS011;11814;44.686;10.842;2023-01-10T13:05:55;0.88;;;0.40;;
23290;SDS011;11814;44.686;10.842;2023-01-10T13:08:29;1.27;;;0.47;;
23290;SDS011;11814;44.686;10.842;2023-01-10T13:10:58;0.90;;;0.40;;
23290;SDS011;11814;44.686;10.842;2023-01-10T13:13:34;1.83;;;0.60;;
23290;SDS011;11814;44.686;10.842;2023-01-10T13:18:57;1.58;;;0.40;;
23290;SDS011;11814;44.686;10.842;2023-01-10T13:21:26;1.42;;;0.32;;
23290;SDS011;11814;44.686;10.842;2023-01-10T13:23:52;2.22;;;0.40;;
23290;SDS011;11814;44.686;10.842;2023-01-10T13:26:22;1.02;;;0.40;;
23290;SDS011;11814;44.686;10.842;2023-01-10T13:28:55;0.73;;;0.30;;
23290;SDS011;11814;44.686;10.842;2023-01-10T13:34:02;2.47;;;0.40;;
23290;SDS011;11814;44.686;10.842;2023-01-10T13:36:35;0.68;;;0.30;;
23290;SDS011;11814;44.686;10.842;2023-01-10T13:39:04;3.17;;;0.40;;
23290;SDS011;11814;44.686;10.842;2023-01-10T13:51:02;1.30;;;0.30;;
23290;SDS011;11814;44.686;10.842;2023-01-10T14:08:56;2.05;;;0.63;;
23290;SDS011;11814;44.686;10.842;2023-01-10T14:14:29;4.50;;;0.80;;
23290;SDS011;11814;44.686;10.842;2023-01-10T14:17:23;0.93;;;0.50;;
23290;SDS011;11814;44.686;10.842;2023-01-10T14:20:12;1.17;;;0.50;;
23290;SDS011;11814;44.686;10.842;2023-01-10T14:22:55;2.92;;;0.68;;
23290;SDS011;11814;44.686;10.842;2023-01-10T14:25:31;1.98;;;0.90;;
23290;SDS011;11814;44.686;10.842;2023-01-10T14:28:01;1.85;;;0.77;;
23290;SDS011;11814;44.686;10.842;2023-01-10T14:33:10;6.60;;;0.80;;
23290;SDS011;11814;44.686;10.842;2023-01-10T14:35:42;2.58;;;1.00;;
23290;SDS011;11814;44.686;10.842;2023-01-10T14:38:28;1.33;;;0.90;;
23290;SDS011;11814;44.686;10.842;2023-01-10T14:41:00;1.90;;;0.70;;
23290;SDS011;11814;44.686;10.842;2023-01-10T14:44:05;1.73;;;0.80;;
23290;SDS011;11814;44.686;10.842;2023-01-10T14:49:54;4.93;;;0.80;;
23290;SDS011;11814;44.686;10.842;2023-01-10T14:52:23;0.98;;;0.68;;
23290;SDS011;11814;44.686;10.842;2023-01-10T14:55:03;3.47;;;0.90;;
23290;SDS011;11814;44.686;10.842;2023-01-10T14:57:36;2.90;;;1.17;;
23290;SDS011;11814;44.686;10.842;2023-01-10T15:02:42;4.13;;;1.70;;
23290;SDS011;11814;44.686;10.842;2023-01-10T15:05:20;4.75;;;1.45;;
23290;SDS011;11814;44.686;10.842;2023-01-10T15:07:50;7.47;;;2.15;;
23290;SDS011;11814;44.686;10.842;2023-01-10T15:10:27;14.13;;;2.00;;
23290;SDS011;11814;44.686;10.842;2023-01-10T15:12:58;4.45;;;1.35;;
23290;SDS011;11814;44.686;10.842;2023-01-10T15:15:29;3.33;;;1.00;;
23290;SDS011;11814;44.686;10.842;2023-01-10T15:18:01;3.30;;;1.00;;
23290;SDS011;11814;44.686;10.842;2023-01-10T15:20:43;4.50;;;0.85;;
23290;SDS011;11814;44.686;10.842;2023-01-10T15:23:11;4.13;;;0.60;;
23290;SDS011;11814;44.686;10.842;2023-01-10T15:25:38;7.57;;;0.77;;
23290;SDS011;11814;44.686;10.842;2023-01-10T15:28:16;4.05;;;0.75;;
23290;SDS011;11814;44.686;10.842;2023-01-10T15:30:43;1.90;;;0.65;;
23290;SDS011;11814;44.686;10.842;2023-01-10T15:33:13;2.38;;;0.88;;
23290;SDS011;11814;44.686;10.842;2023-01-10T15:35:51;1.23;;;0.50;;
23290;SDS011;11814;44.686;10.842;2023-01-10T15:38:18;3.35;;;0.77;;
23290;SDS011;11814;44.686;10.842;2023-01-10T15:40:51;3.35;;;0.63;;
23290;SDS011;11814;44.686;10.842;2023-01-10T15:43:26;6.15;;;0.60;;
23290;SDS011;11814;44.686;10.842;2023-01-10T15:45:57;2.42;;;0.60;;
23290;SDS011;11814;44.686;10.842;2023-01-10T15:50:58;2.15;;;0.80;;
23290;SDS011;11814;44.686;10.842;2023-01-10T15:54:04;2.38;;;0.80;;
23290;SDS011;11814;44.686;10.842;2023-01-10T15:56:48;2.90;;;0.60;;
23290;SDS011;11814;44.686;10.842;2023-01-10T16:04:47;1.33;;;0.60;;
23290;SDS011;11814;44.686;10.842;2023-01-10T16:12:34;1.40;;;0.70;;
23290;SDS011;11814;44.686;10.842;2023-01-10T16:15:39;3.28;;;0.70;;
23290;SDS011;11814;44.686;10.842;2023-01-10T16:18:08;2.75;;;0.95;;
23290;SDS011;11814;44.686;10.842;2023-01-10T16:20:35;1.60;;;0.63;;
23290;SDS011;11814;44.686;10.842;2023-01-10T16:23:03;3.20;;;1.05;;
23290;SDS011;11814;44.686;10.842;2023-01-10T16:25:34;3.15;;;1.10;;
23290;SDS011;11814;44.686;10.842;2023-01-10T16:28:09;2.97;;;1.42;;
23290;SDS011;11814;44.686;10.842;2023-01-10T16:30:36;3.53;;;1.60;;
23290;SDS011;11814;44.686;10.842;2023-01-10T16:33:11;5.85;;;2.10;;
23290;SDS011;11814;44.686;10.842;2023-01-10T16:35:43;4.15;;;1.45;;
23290;SDS011;11814;44.686;10.842;2023-01-10T16:38:10;5.13;;;1.30;;
23290;SDS011;11814;44.686;10.842;2023-01-10T16:40:37;3.75;;;1.92;;
23290;SDS011;11814;44.686;10.842;2023-01-10T16:43:05;7.65;;;2.00;;
23290;SDS011;11814;44.686;10.842;2023-01-10T16:45:47;3.88;;;1.65;;
23290;SDS011;11814;44.686;10.842;2023-01-10T16:48:15;5.00;;;1.85;;
23290;SDS011;11814;44.686;10.842;2023-01-10T16:50:41;6.50;;;1.70;;
23290;SDS011;11814;44.686;10.842;2023-01-10T16:53:11;4.00;;;1.50;;
23290;SDS011;11814;44.686;10.842;2023-01-10T16:55:40;5.15;;;1.90;;
23290;SDS011;11814;44.686;10.842;2023-01-10T16:58:11;2.67;;;1.50;;
23290;SDS011;11814;44.686;10.842;2023-01-10T17:00:38;2.83;;;1.50;;
23290;SDS011;11814;44.686;10.842;2023-01-10T17:03:06;2.60;;;1.25;;
23290;SDS011;11814;44.686;10.842;2023-01-10T17:05:36;2.70;;;1.52;;
23290;SDS011;11814;44.686;10.842;2023-01-10T17:08:03;5.20;;;1.67;;
23290;SDS011;11814;44.686;10.842;2023-01-10T17:10:29;4.10;;;1.90;;